sensor_id;sensor_type;location;lat;lon;timestamp;temperature;humidity
42979;DHT22;28616;44.746;19.678;2023-02-26T00:01:26;3.70;99.90
42979;DHT22;28616;44.746;19.678;2023-02-26T00:03:57;3.70;99.90
42979;DHT22;28616;44.746;19.678;2023-02-26T00:06:24;3.70;99.90
42979;DHT22;28616;44.746;19.678;2023-02-26T00:08:50;3.70;99.90
42979;DHT22;28616;44.746;19.678;2023-02-26T00:11:16;3.60;99.90
42979;DHT22;28616;44.746;19.678;2023-02-26T00:13:43;3.70;99.90
42979;DHT22;28616;44.746;19.678;2023-02-26T00:18:54;3.70;99.90
42979;DHT22;28616;44.746;19.678;2023-02-26T00:21:22;3.70;99.90
42979;DHT22;28616;44.746;19.678;2023-02-26T00:23:48;3.60;99.90
42979;DHT22;28616;44.746;19.678;2023-02-26T00:26:14;3.50;99.90
42979;DHT22;28616;44.746;19.678;2023-02-26T00:28:40;3.50;99.90
42979;DHT22;28616;44.746;19.678;2023-02-26T00:31:06;3.50;99.90
42979;DHT22;28616;44.746;19.678;2023-02-26T00:33:32;3.50;99.90
42979;DHT22;28616;44.746;19.678;2023-02-26T00:36:08;3.50;99.90
42979;DHT22;28616;44.746;19.678;2023-02-26T00:38:37;3.40;99.90
42979;DHT22;28616;44.746;19.678;2023-02-26T00:41:04;3.30;99.90
42979;DHT22;28616;44.746;19.678;2023-02-26T00:43:30;3.30;99.90
42979;DHT22;28616;44.746;19.678;2023-02-26T00:51:31;3.30;99.90
42979;DHT22;28616;44.746;19.678;2023-02-26T00:56:42;3.20;99.90
42979;DHT22;28616;44.746;19.678;2023-02-26T00:59:08;3.30;99.90
42979;DHT22;28616;44.746;19.678;2023-02-26T01:01:34;3.20;99.90
42979;DHT22;28616;44.746;19.678;2023-02-26T01:04:00;3.20;99.90
42979;DHT22;28616;44.746;19.678;2023-02-26T01:06:32;3.10;99.90
42979;DHT22;28616;44.746;19.678;2023-02-26T01:11:35;3.10;99.90
42979;DHT22;28616;44.746;19.678;2023-02-26T01:14:02;3.10;99.90
42979;DHT22;28616;44.746;19.678;2023-02-26T01:16:31;3.10;99.90
42979;DHT22;28616;44.746;19.678;2023-02-26T01:19:08;3.00;99.90
42979;DHT22;28616;44.746;19.678;2023-02-26T01:21:41;2.90;99.90
42979;DHT22;28616;44.746;19.678;2023-02-26T01:24:12;2.90;99.90
42979;DHT22;28616;44.746;19.678;2023-02-26T01:26:39;2.80;99.90
42979;DHT22;28616;44.746;19.678;2023-02-26T01:29:05;2.80;99.90
42979;DHT22;28616;44.746;19.678;2023-02-26T01:31:42;2.80;99.90
42979;DHT22;28616;44.746;19.678;2023-02-26T01:37:38;2.70;99.90
42979;DHT22;28616;44.746;19.678;2023-02-26T01:43:02;2.50;99.90
42979;DHT22;28616;44.746;19.678;2023-02-26T01:45:34;2.40;99.90
42979;DHT22;28616;44.746;19.678;2023-02-26T01:48:15;2.50;99.90
42979;DHT22;28616;44.746;19.678;2023-02-26T01:50:43;2.50;99.90
42979;DHT22;28616;44.746;19.678;2023-02-26T01:55:45;2.60;99.90
42979;DHT22;28616;44.746;19.678;2023-02-26T01:58:13;2.60;99.90
42979;DHT22;28616;44.746;19.678;2023-02-26T02:00:39;2.50;99.90
42979;DHT22;28616;44.746;19.678;2023-02-26T02:03:05;2.50;99.90
42979;DHT22;28616;44.746;19.678;2023-02-26T02:05:34;2.50;99.90
42979;DHT22;28616;44.746;19.678;2023-02-26T02:08:03;2.40;99.90
42979;DHT22;28616;44.746;19.678;2023-02-26T02:10:30;2.30;99.90
42979;DHT22;28616;44.746;19.678;2023-02-26T02:18:55;2.10;99.90
42979;DHT22;28616;44.746;19.678;2023-02-26T02:33:17;1.90;99.90
42979;DHT22;28616;44.746;19.678;2023-02-26T02:36:02;1.80;99.90
42979;DHT22;28616;44.746;19.678;2023-02-26T02:38:35;1.90;99.90
42979;DHT22;28616;44.746;19.678;2023-02-26T02:41:14;1.80;99.90
42979;DHT22;28616;44.746;19.678;2023-02-26T02:43:42;1.80;99.90
42979;DHT22;28616;44.746;19.678;2023-02-26T02:46:13;1.80;99.90
42979;DHT22;28616;44.746;19.678;2023-02-26T02:48:44;1.70;99.90
42979;DHT22;28616;44.746;19.678;2023-02-26T02:51:32;1.70;99.90
42979;DHT22;28616;44.746;19.678;2023-02-26T02:54:06;1.70;99.90
42979;DHT22;28616;44.746;19.678;2023-02-26T02:56:53;1.60;99.90
42979;DHT22;28616;44.746;19.678;2023-02-26T02:59:26;1.60;99.90
42979;DHT22;28616;44.746;19.678;2023-02-26T03:01:55;1.60;99.90
42979;DHT22;28616;44.746;19.678;2023-02-26T03:04:22;1.60;99.90
42979;DHT22;28616;44.746;19.678;2023-02-26T03:06:48;1.50;99.90
42979;DHT22;28616;44.746;19.678;2023-02-26T03:09:15;1.50;99.90
42979;DHT22;28616;44.746;19.678;2023-02-26T03:11:41;1.40;99.90
42979;DHT22;28616;44.746;19.678;2023-02-26T03:14:08;1.50;99.90
42979;DHT22;28616;44.746;19.678;2023-02-26T03:17:08;1.40;99.90
42979;DHT22;28616;44.746;19.678;2023-02-26T03:25:25;1.40;99.90
42979;DHT22;28616;44.746;19.678;2023-02-26T03:28:03;1.50;99.90
42979;DHT22;28616;44.746;19.678;2023-02-26T03:38:53;1.50;99.90
42979;DHT22;28616;44.746;19.678;2023-02-26T03:41:37;1.50;99.90
42979;DHT22;28616;44.746;19.678;2023-02-26T03:47:07;1.50;99.90
42979;DHT22;28616;44.746;19.678;2023-02-26T03:49:39;1.50;99.90
42979;DHT22;28616;44.746;19.678;2023-02-26T03:52:06;1.50;99.90
42979;DHT22;28616;44.746;19.678;2023-02-26T03:54:50;1.50;99.90
42979;DHT22;28616;44.746;19.678;2023-02-26T03:57:16;1.50;99.90
42979;DHT22;28616;44.746;19.678;2023-02-26T03:59:42;1.50;99.90
42979;DHT22;28616;44.746;19.678;2023-02-26T04:02:27;1.50;99.90
42979;DHT22;28616;44.746;19.678;2023-02-26T04:05:05;1.50;99.90
42979;DHT22;28616;44.746;19.678;2023-02-26T04:07:32;1.50;99.90
42979;DHT22;28616;44.746;19.678;2023-02-26T04:09:58;1.50;99.90
42979;DHT22;28616;44.746;19.678;2023-02-26T04:12:25;1.50;99.90
42979;DHT22;28616;44.746;19.678;2023-02-26T04:14:51;1.40;99.90
42979;DHT22;28616;44.746;19.678;2023-02-26T04:17:17;1.40;99.90
42979;DHT22;28616;44.746;19.678;2023-02-26T04:19:43;1.50;99.90
42979;DHT22;28616;44.746;19.678;2023-02-26T04:22:09;1.50;99.90
42979;DHT22;28616;44.746;19.678;2023-02-26T04:24:35;1.50;99.90
42979;DHT22;28616;44.746;19.678;2023-02-26T04:27:00;1.50;99.90
42979;DHT22;28616;44.746;19.678;2023-02-26T04:29:26;1.50;99.90
42979;DHT22;28616;44.746;19.678;2023-02-26T04:31:52;1.40;99.90
42979;DHT22;28616;44.746;19.678;2023-02-26T04:34:18;1.50;99.90
42979;DHT22;28616;44.746;19.678;2023-02-26T04:36:44;1.50;99.90
42979;DHT22;28616;44.746;19.678;2023-02-26T04:39:10;1.50;99.90
42979;DHT22;28616;44.746;19.678;2023-02-26T04:41:36;1.40;99.90
42979;DHT22;28616;44.746;19.678;2023-02-26T04:44:03;1.50;99.90
42979;DHT22;28616;44.746;19.678;2023-02-26T04:46:29;1.40;99.90
42979;DHT22;28616;44.746;19.678;2023-02-26T04:48:55;1.40;99.90
42979;DHT22;28616;44.746;19.678;2023-02-26T04:51:20;1.40;99.90
42979;DHT22;28616;44.746;19.678;2023-02-26T04:53:46;1.40;99.90
42979;DHT22;28616;44.746;19.678;2023-02-26T04:56:12;1.40;99.90
42979;DHT22;28616;44.746;19.678;2023-02-26T04:58:38;1.40;99.90
42979;DHT22;28616;44.746;19.678;2023-02-26T05:01:04;1.40;99.90
42979;DHT22;28616;44.746;19.678;2023-02-26T05:03:30;1.40;99.90
42979;DHT22;28616;44.746;19.678;2023-02-26T05:05:56;1.40;99.90
42979;DHT22;28616;44.746;19.678;2023-02-26T05:08:21;1.40;99.90
42979;DHT22;28616;44.746;19.678;2023-02-26T05:10:47;1.40;99.90
42979;DHT22;28616;44.746;19.678;2023-02-26T05:13:13;1.40;99.90
42979;DHT22;28616;44.746;19.678;2023-02-26T05:15:39;1.30;99.90
42979;DHT22;28616;44.746;19.678;2023-02-26T05:18:05;1.30;99.90
42979;DHT22;28616;44.746;19.678;2023-02-26T05:20:30;1.40;99.90
42979;DHT22;28616;44.746;19.678;2023-02-26T05:22:57;1.40;99.90
42979;DHT22;28616;44.746;19.678;2023-02-26T05:25:23;1.30;99.90
42979;DHT22;28616;44.746;19.678;2023-02-26T05:27:49;1.40;99.90
42979;DHT22;28616;44.746;19.678;2023-02-26T05:30:15;1.40;99.90
42979;DHT22;28616;44.746;19.678;2023-02-26T05:32:41;1.30;99.90
42979;DHT22;28616;44.746;19.678;2023-02-26T05:35:08;1.40;99.90
42979;DHT22;28616;44.746;19.678;2023-02-26T05:37:35;1.40;99.90
42979;DHT22;28616;44.746;19.678;2023-02-26T05:40:02;1.40;99.90
42979;DHT22;28616;44.746;19.678;2023-02-26T05:42:28;1.40;99.90
42979;DHT22;28616;44.746;19.678;2023-02-26T05:44:54;1.40;99.90
42979;DHT22;28616;44.746;19.678;2023-02-26T05:47:20;1.30;99.90
42979;DHT22;28616;44.746;19.678;2023-02-26T05:49:45;1.40;99.90
42979;DHT22;28616;44.746;19.678;2023-02-26T05:52:11;1.40;99.90
42979;DHT22;28616;44.746;19.678;2023-02-26T05:54:37;1.40;99.90
42979;DHT22;28616;44.746;19.678;2023-02-26T05:57:02;1.40;99.90
42979;DHT22;28616;44.746;19.678;2023-02-26T05:59:28;1.40;99.90
42979;DHT22;28616;44.746;19.678;2023-02-26T06:01:54;1.40;99.90
42979;DHT22;28616;44.746;19.678;2023-02-26T06:04:19;1.40;99.90
42979;DHT22;28616;44.746;19.678;2023-02-26T06:06:45;1.50;99.90
42979;DHT22;28616;44.746;19.678;2023-02-26T06:09:11;1.50;99.90
42979;DHT22;28616;44.746;19.678;2023-02-26T06:11:37;1.50;99.90
42979;DHT22;28616;44.746;19.678;2023-02-26T06:14:04;1.50;99.90
42979;DHT22;28616;44.746;19.678;2023-02-26T06:16:29;1.50;99.90
42979;DHT22;28616;44.746;19.678;2023-02-26T06:18:55;1.50;99.90
42979;DHT22;28616;44.746;19.678;2023-02-26T06:21:21;1.50;99.90
42979;DHT22;28616;44.746;19.678;2023-02-26T06:23:46;1.50;99.90
42979;DHT22;28616;44.746;19.678;2023-02-26T06:26:12;1.50;99.90
42979;DHT22;28616;44.746;19.678;2023-02-26T06:28:38;1.50;99.90
42979;DHT22;28616;44.746;19.678;2023-02-26T06:31:03;1.50;99.90
42979;DHT22;28616;44.746;19.678;2023-02-26T06:33:29;1.50;99.90
42979;DHT22;28616;44.746;19.678;2023-02-26T06:35:55;1.60;99.90
42979;DHT22;28616;44.746;19.678;2023-02-26T06:38:22;1.60;99.90
42979;DHT22;28616;44.746;19.678;2023-02-26T06:40:48;1.70;99.90
42979;DHT22;28616;44.746;19.678;2023-02-26T06:43:14;1.70;99.90
42979;DHT22;28616;44.746;19.678;2023-02-26T06:45:40;1.70;99.90
42979;DHT22;28616;44.746;19.678;2023-02-26T06:48:06;1.70;99.90
42979;DHT22;28616;44.746;19.678;2023-02-26T06:50:31;1.80;99.90
42979;DHT22;28616;44.746;19.678;2023-02-26T06:52:57;1.80;99.90
42979;DHT22;28616;44.746;19.678;2023-02-26T06:55:23;1.80;99.90
42979;DHT22;28616;44.746;19.678;2023-02-26T06:57:55;1.80;99.90
42979;DHT22;28616;44.746;19.678;2023-02-26T07:00:22;1.80;99.90
42979;DHT22;28616;44.746;19.678;2023-02-26T07:02:48;1.80;99.90
42979;DHT22;28616;44.746;19.678;2023-02-26T07:05:14;1.80;99.90
42979;DHT22;28616;44.746;19.678;2023-02-26T07:07:41;1.80;99.90
42979;DHT22;28616;44.746;19.678;2023-02-26T07:10:08;1.90;99.90
42979;DHT22;28616;44.746;19.678;2023-02-26T07:12:34;1.80;99.90
42979;DHT22;28616;44.746;19.678;2023-02-26T07:14:59;1.90;99.90
42979;DHT22;28616;44.746;19.678;2023-02-26T07:17:25;1.90;99.90
42979;DHT22;28616;44.746;19.678;2023-02-26T07:19:51;1.80;99.90
42979;DHT22;28616;44.746;19.678;2023-02-26T07:22:19;1.80;99.90
42979;DHT22;28616;44.746;19.678;2023-02-26T07:24:45;1.80;99.90
42979;DHT22;28616;44.746;19.678;2023-02-26T07:27:11;1.80;99.90
42979;DHT22;28616;44.746;19.678;2023-02-26T07:29:37;1.90;99.90
42979;DHT22;28616;44.746;19.678;2023-02-26T07:32:03;1.80;99.90
42979;DHT22;28616;44.746;19.678;2023-02-26T07:34:30;1.90;99.90
42979;DHT22;28616;44.746;19.678;2023-02-26T07:36:56;1.80;99.90
42979;DHT22;28616;44.746;19.678;2023-02-26T07:39:24;1.90;99.90
42979;DHT22;28616;44.746;19.678;2023-02-26T07:41:49;1.80;99.90
42979;DHT22;28616;44.746;19.678;2023-02-26T07:44:15;1.80;99.90
42979;DHT22;28616;44.746;19.678;2023-02-26T07:46:41;1.80;99.90
42979;DHT22;28616;44.746;19.678;2023-02-26T07:49:06;1.80;99.90
42979;DHT22;28616;44.746;19.678;2023-02-26T07:51:32;1.80;99.90
42979;DHT22;28616;44.746;19.678;2023-02-26T07:53:58;1.80;99.90
42979;DHT22;28616;44.746;19.678;2023-02-26T07:56:24;1.80;99.90
42979;DHT22;28616;44.746;19.678;2023-02-26T07:58:50;1.90;99.90
42979;DHT22;28616;44.746;19.678;2023-02-26T08:01:15;1.90;99.90
42979;DHT22;28616;44.746;19.678;2023-02-26T08:03:41;1.90;99.90
42979;DHT22;28616;44.746;19.678;2023-02-26T08:06:07;1.90;99.90
42979;DHT22;28616;44.746;19.678;2023-02-26T08:08:33;1.90;99.90
42979;DHT22;28616;44.746;19.678;2023-02-26T08:11:00;1.90;99.90
42979;DHT22;28616;44.746;19.678;2023-02-26T08:13:26;2.00;99.90
42979;DHT22;28616;44.746;19.678;2023-02-26T08:15:52;2.00;99.90
42979;DHT22;28616;44.746;19.678;2023-02-26T08:18:17;2.00;99.90
42979;DHT22;28616;44.746;19.678;2023-02-26T08:20:43;2.00;99.90
42979;DHT22;28616;44.746;19.678;2023-02-26T08:23:09;2.00;99.90
42979;DHT22;28616;44.746;19.678;2023-02-26T08:25:35;2.10;99.90
42979;DHT22;28616;44.746;19.678;2023-02-26T08:28:01;2.10;99.90
42979;DHT22;28616;44.746;19.678;2023-02-26T08:30:28;2.00;99.90
42979;DHT22;28616;44.746;19.678;2023-02-26T08:32:54;2.00;99.90
42979;DHT22;28616;44.746;19.678;2023-02-26T08:35:20;2.10;99.90
42979;DHT22;28616;44.746;19.678;2023-02-26T08:37:45;2.10;99.90
42979;DHT22;28616;44.746;19.678;2023-02-26T08:40:12;2.20;99.90
42979;DHT22;28616;44.746;19.678;2023-02-26T08:42:37;2.20;99.90
42979;DHT22;28616;44.746;19.678;2023-02-26T08:45:04;2.20;99.90
42979;DHT22;28616;44.746;19.678;2023-02-26T08:47:30;2.30;99.90
42979;DHT22;28616;44.746;19.678;2023-02-26T08:49:55;2.20;99.90
42979;DHT22;28616;44.746;19.678;2023-02-26T08:52:22;2.10;99.90
42979;DHT22;28616;44.746;19.678;2023-02-26T08:54:47;2.20;99.90
42979;DHT22;28616;44.746;19.678;2023-02-26T08:57:13;2.30;99.90
42979;DHT22;28616;44.746;19.678;2023-02-26T08:59:39;2.10;99.90
42979;DHT22;28616;44.746;19.678;2023-02-26T09:02:05;2.10;99.90
42979;DHT22;28616;44.746;19.678;2023-02-26T09:04:30;2.20;99.90
42979;DHT22;28616;44.746;19.678;2023-02-26T09:06:56;2.20;99.90
42979;DHT22;28616;44.746;19.678;2023-02-26T09:09:23;2.20;99.90
42979;DHT22;28616;44.746;19.678;2023-02-26T09:11:48;2.30;99.90
42979;DHT22;28616;44.746;19.678;2023-02-26T09:14:14;2.30;99.90
42979;DHT22;28616;44.746;19.678;2023-02-26T09:16:40;2.20;99.90
42979;DHT22;28616;44.746;19.678;2023-02-26T09:19:06;2.20;99.90
42979;DHT22;28616;44.746;19.678;2023-02-26T09:21:33;2.30;99.90
42979;DHT22;28616;44.746;19.678;2023-02-26T09:24:00;2.40;99.90
42979;DHT22;28616;44.746;19.678;2023-02-26T09:26:26;2.30;99.90
42979;DHT22;28616;44.746;19.678;2023-02-26T09:28:51;2.30;99.90
42979;DHT22;28616;44.746;19.678;2023-02-26T09:31:17;2.40;99.90
42979;DHT22;28616;44.746;19.678;2023-02-26T09:33:43;2.40;99.90
42979;DHT22;28616;44.746;19.678;2023-02-26T09:36:09;2.40;99.90
42979;DHT22;28616;44.746;19.678;2023-02-26T09:38:35;2.40;99.90
42979;DHT22;28616;44.746;19.678;2023-02-26T09:41:06;2.40;99.90
42979;DHT22;28616;44.746;19.678;2023-02-26T09:46:49;2.50;99.90
42979;DHT22;28616;44.746;19.678;2023-02-26T09:54:46;2.40;99.90
42979;DHT22;28616;44.746;19.678;2023-02-26T09:57:48;2.40;99.90
42979;DHT22;28616;44.746;19.678;2023-02-26T10:00:23;2.50;99.90
42979;DHT22;28616;44.746;19.678;2023-02-26T10:03:07;2.60;99.90
42979;DHT22;28616;44.746;19.678;2023-02-26T10:08:17;2.50;99.90
42979;DHT22;28616;44.746;19.678;2023-02-26T10:10:50;2.50;99.90
42979;DHT22;28616;44.746;19.678;2023-02-26T10:13:42;2.40;99.90
42979;DHT22;28616;44.746;19.678;2023-02-26T10:16:14;2.40;99.90
42979;DHT22;28616;44.746;19.678;2023-02-26T10:18:52;2.30;99.90
42979;DHT22;28616;44.746;19.678;2023-02-26T10:22:16;2.40;99.90
42979;DHT22;28616;44.746;19.678;2023-02-26T10:24:40;2.40;99.90
42979;DHT22;28616;44.746;19.678;2023-02-26T10:27:13;2.50;99.90
42979;DHT22;28616;44.746;19.678;2023-02-26T10:35:30;2.50;99.90
42979;DHT22;28616;44.746;19.678;2023-02-26T10:37:58;2.40;99.90
42979;DHT22;28616;44.746;19.678;2023-02-26T10:40:36;2.50;99.90
42979;DHT22;28616;44.746;19.678;2023-02-26T10:50:57;2.60;99.90
42979;DHT22;28616;44.746;19.678;2023-02-26T10:53:23;2.60;99.90
42979;DHT22;28616;44.746;19.678;2023-02-26T10:58:28;2.60;99.90
42979;DHT22;28616;44.746;19.678;2023-02-26T11:00:55;2.50;99.90
42979;DHT22;28616;44.746;19.678;2023-02-26T11:05:53;2.40;99.90
42979;DHT22;28616;44.746;19.678;2023-02-26T11:08:25;2.40;99.90
42979;DHT22;28616;44.746;19.678;2023-02-26T11:10:55;2.50;99.90
42979;DHT22;28616;44.746;19.678;2023-02-26T11:13:22;2.60;99.90
42979;DHT22;28616;44.746;19.678;2023-02-26T11:15:51;2.60;99.90
42979;DHT22;28616;44.746;19.678;2023-02-26T11:18:22;2.60;99.90
42979;DHT22;28616;44.746;19.678;2023-02-26T11:20:53;2.60;99.90
42979;DHT22;28616;44.746;19.678;2023-02-26T11:23:21;2.40;99.90
42979;DHT22;28616;44.746;19.678;2023-02-26T11:26:13;2.50;99.90
42979;DHT22;28616;44.746;19.678;2023-02-26T11:28:46;2.50;99.90
42979;DHT22;28616;44.746;19.678;2023-02-26T11:31:16;2.60;99.90
42979;DHT22;28616;44.746;19.678;2023-02-26T11:33:51;2.60;99.90
42979;DHT22;28616;44.746;19.678;2023-02-26T11:36:23;2.70;99.90
42979;DHT22;28616;44.746;19.678;2023-02-26T11:38:59;2.70;99.90
42979;DHT22;28616;44.746;19.678;2023-02-26T11:41:27;2.70;99.90
42979;DHT22;28616;44.746;19.678;2023-02-26T11:44:21;2.50;99.90
42979;DHT22;28616;44.746;19.678;2023-02-26T11:46:54;2.70;99.90
42979;DHT22;28616;44.746;19.678;2023-02-26T11:49:23;2.80;99.90
42979;DHT22;28616;44.746;19.678;2023-02-26T11:52:15;2.70;99.90
42979;DHT22;28616;44.746;19.678;2023-02-26T11:54:43;2.70;99.90
42979;DHT22;28616;44.746;19.678;2023-02-26T11:57:19;2.70;99.90
42979;DHT22;28616;44.746;19.678;2023-02-26T11:59:50;2.70;99.90
42979;DHT22;28616;44.746;19.678;2023-02-26T12:02:19;2.60;99.90
42979;DHT22;28616;44.746;19.678;2023-02-26T12:04:50;2.60;99.90
42979;DHT22;28616;44.746;19.678;2023-02-26T12:07:17;2.60;99.90
42979;DHT22;28616;44.746;19.678;2023-02-26T12:09:44;2.60;99.90
42979;DHT22;28616;44.746;19.678;2023-02-26T12:15:01;2.70;99.90
42979;DHT22;28616;44.746;19.678;2023-02-26T12:20:18;2.70;99.90
42979;DHT22;28616;44.746;19.678;2023-02-26T12:23:05;2.60;99.90
42979;DHT22;28616;44.746;19.678;2023-02-26T12:26:08;2.50;99.90
42979;DHT22;28616;44.746;19.678;2023-02-26T12:39:43;2.50;99.90
42979;DHT22;28616;44.746;19.678;2023-02-26T12:45:05;2.40;99.90
42979;DHT22;28616;44.746;19.678;2023-02-26T12:47:49;2.40;99.90
42979;DHT22;28616;44.746;19.678;2023-02-26T12:50:50;2.40;99.90
42979;DHT22;28616;44.746;19.678;2023-02-26T13:13:41;2.60;99.90
42979;DHT22;28616;44.746;19.678;2023-02-26T13:19:33;2.80;99.90
42979;DHT22;28616;44.746;19.678;2023-02-26T13:22:24;2.80;99.90
42979;DHT22;28616;44.746;19.678;2023-02-26T13:27:47;2.60;99.90
42979;DHT22;28616;44.746;19.678;2023-02-26T13:30:31;2.50;99.90
42979;DHT22;28616;44.746;19.678;2023-02-26T13:33:01;2.50;99.90
42979;DHT22;28616;44.746;19.678;2023-02-26T13:35:32;2.40;99.90
42979;DHT22;28616;44.746;19.678;2023-02-26T13:38:00;2.30;99.90
42979;DHT22;28616;44.746;19.678;2023-02-26T13:49:04;2.20;99.90
42979;DHT22;28616;44.746;19.678;2023-02-26T13:51:39;2.20;99.90
42979;DHT22;28616;44.746;19.678;2023-02-26T13:54:32;2.20;99.90
42979;DHT22;28616;44.746;19.678;2023-02-26T13:57:52;2.30;99.90
42979;DHT22;28616;44.746;19.678;2023-02-26T14:00:02;2.30;99.90
42979;DHT22;28616;44.746;19.678;2023-02-26T14:02:55;2.30;99.90
42979;DHT22;28616;44.746;19.678;2023-02-26T14:05:50;2.20;99.90
42979;DHT22;28616;44.746;19.678;2023-02-26T14:10:57;2.20;99.90
42979;DHT22;28616;44.746;19.678;2023-02-26T14:13:32;2.10;99.90
42979;DHT22;28616;44.746;19.678;2023-02-26T14:16:25;2.10;99.90
42979;DHT22;28616;44.746;19.678;2023-02-26T14:18:52;2.10;99.90
42979;DHT22;28616;44.746;19.678;2023-02-26T14:26:47;2.20;99.90
42979;DHT22;28616;44.746;19.678;2023-02-26T14:29:21;2.20;99.90
42979;DHT22;28616;44.746;19.678;2023-02-26T14:31:55;2.20;99.90
42979;DHT22;28616;44.746;19.678;2023-02-26T14:34:29;2.20;99.90
42979;DHT22;28616;44.746;19.678;2023-02-26T14:36:58;2.10;99.90
42979;DHT22;28616;44.746;19.678;2023-02-26T14:39:47;2.10;99.90
42979;DHT22;28616;44.746;19.678;2023-02-26T14:47:59;2.10;99.90
42979;DHT22;28616;44.746;19.678;2023-02-26T14:56:11;1.90;99.90
42979;DHT22;28616;44.746;19.678;2023-02-26T14:59:06;1.90;99.90
42979;DHT22;28616;44.746;19.678;2023-02-26T15:04:30;2.00;99.90
42979;DHT22;28616;44.746;19.678;2023-02-26T15:17:58;1.90;99.90
42979;DHT22;28616;44.746;19.678;2023-02-26T15:26:34;1.90;99.90
42979;DHT22;28616;44.746;19.678;2023-02-26T15:29:05;1.90;99.90
42979;DHT22;28616;44.746;19.678;2023-02-26T15:32:06;1.80;99.90
42979;DHT22;28616;44.746;19.678;2023-02-26T15:34:30;1.80;99.90
42979;DHT22;28616;44.746;19.678;2023-02-26T15:36:58;1.80;99.90
42979;DHT22;28616;44.746;19.678;2023-02-26T15:39:25;1.80;99.90
42979;DHT22;28616;44.746;19.678;2023-02-26T15:41:52;1.80;99.90
42979;DHT22;28616;44.746;19.678;2023-02-26T15:44:30;1.80;99.90
42979;DHT22;28616;44.746;19.678;2023-02-26T15:47:01;1.80;99.90
42979;DHT22;28616;44.746;19.678;2023-02-26T15:49:36;1.80;99.90
42979;DHT22;28616;44.746;19.678;2023-02-26T15:52:05;1.80;99.90
42979;DHT22;28616;44.746;19.678;2023-02-26T15:54:57;1.80;99.90
42979;DHT22;28616;44.746;19.678;2023-02-26T15:57:25;1.80;99.90
42979;DHT22;28616;44.746;19.678;2023-02-26T15:59:53;1.80;99.90
42979;DHT22;28616;44.746;19.678;2023-02-26T16:02:30;1.80;99.90
42979;DHT22;28616;44.746;19.678;2023-02-26T16:04:56;1.80;99.90
42979;DHT22;28616;44.746;19.678;2023-02-26T16:07:23;1.70;99.90
42979;DHT22;28616;44.746;19.678;2023-02-26T16:09:51;1.70;99.90
42979;DHT22;28616;44.746;19.678;2023-02-26T16:12:30;1.70;99.90
42979;DHT22;28616;44.746;19.678;2023-02-26T16:15:02;1.70;99.90
42979;DHT22;28616;44.746;19.678;2023-02-26T16:17:34;1.60;99.90
42979;DHT22;28616;44.746;19.678;2023-02-26T16:20:05;1.70;99.90
42979;DHT22;28616;44.746;19.678;2023-02-26T16:23:04;1.70;99.90
42979;DHT22;28616;44.746;19.678;2023-02-26T16:25:38;1.70;99.90
42979;DHT22;28616;44.746;19.678;2023-02-26T16:28:15;1.60;99.90
42979;DHT22;28616;44.746;19.678;2023-02-26T16:30:47;1.60;99.90
42979;DHT22;28616;44.746;19.678;2023-02-26T16:33:15;1.50;99.90
42979;DHT22;28616;44.746;19.678;2023-02-26T16:35:47;1.50;99.90
42979;DHT22;28616;44.746;19.678;2023-02-26T16:38:23;1.50;99.90
42979;DHT22;28616;44.746;19.678;2023-02-26T16:41:04;1.50;99.90
42979;DHT22;28616;44.746;19.678;2023-02-26T16:43:53;1.60;99.90
42979;DHT22;28616;44.746;19.678;2023-02-26T16:46:28;1.50;99.90
42979;DHT22;28616;44.746;19.678;2023-02-26T16:49:10;1.50;99.90
42979;DHT22;28616;44.746;19.678;2023-02-26T16:51:38;1.50;99.90
42979;DHT22;28616;44.746;19.678;2023-02-26T16:54:26;1.50;99.90
42979;DHT22;28616;44.746;19.678;2023-02-26T16:57:07;1.40;99.90
42979;DHT22;28616;44.746;19.678;2023-02-26T16:59:38;1.50;99.90
42979;DHT22;28616;44.746;19.678;2023-02-26T17:02:15;1.50;99.90
42979;DHT22;28616;44.746;19.678;2023-02-26T17:04:44;1.40;99.90
42979;DHT22;28616;44.746;19.678;2023-02-26T17:07:19;1.50;99.90
42979;DHT22;28616;44.746;19.678;2023-02-26T17:09:50;1.50;99.90
42979;DHT22;28616;44.746;19.678;2023-02-26T17:12:22;1.50;99.90
42979;DHT22;28616;44.746;19.678;2023-02-26T17:14:55;1.50;99.90
42979;DHT22;28616;44.746;19.678;2023-02-26T17:17:22;1.50;99.90
42979;DHT22;28616;44.746;19.678;2023-02-26T17:19:47;1.40;99.90
42979;DHT22;28616;44.746;19.678;2023-02-26T17:22:16;1.40;99.90
42979;DHT22;28616;44.746;19.678;2023-02-26T17:24:43;1.40;99.90
42979;DHT22;28616;44.746;19.678;2023-02-26T17:27:21;1.50;99.90
42979;DHT22;28616;44.746;19.678;2023-02-26T17:29:49;1.40;99.90
42979;DHT22;28616;44.746;19.678;2023-02-26T17:32:21;1.40;99.90
42979;DHT22;28616;44.746;19.678;2023-02-26T17:34:47;1.50;99.90
42979;DHT22;28616;44.746;19.678;2023-02-26T17:37:14;1.50;99.90
42979;DHT22;28616;44.746;19.678;2023-02-26T17:39:40;1.40;99.90
42979;DHT22;28616;44.746;19.678;2023-02-26T17:42:15;1.40;99.90
42979;DHT22;28616;44.746;19.678;2023-02-26T17:44:41;1.40;99.90
42979;DHT22;28616;44.746;19.678;2023-02-26T17:47:25;1.40;99.90
42979;DHT22;28616;44.746;19.678;2023-02-26T17:49:52;1.40;99.90
42979;DHT22;28616;44.746;19.678;2023-02-26T17:52:18;1.40;99.90
42979;DHT22;28616;44.746;19.678;2023-02-26T17:54:44;1.40;99.90
42979;DHT22;28616;44.746;19.678;2023-02-26T17:57:16;1.40;99.90
42979;DHT22;28616;44.746;19.678;2023-02-26T17:59:42;1.40;99.90
42979;DHT22;28616;44.746;19.678;2023-02-26T18:02:20;1.40;99.90
42979;DHT22;28616;44.746;19.678;2023-02-26T18:04:47;1.40;99.90
42979;DHT22;28616;44.746;19.678;2023-02-26T18:07:15;1.50;99.90
42979;DHT22;28616;44.746;19.678;2023-02-26T18:09:45;1.40;99.90
42979;DHT22;28616;44.746;19.678;2023-02-26T18:12:16;1.40;99.90
42979;DHT22;28616;44.746;19.678;2023-02-26T18:14:43;1.40;99.90
42979;DHT22;28616;44.746;19.678;2023-02-26T18:17:13;1.40;99.90
42979;DHT22;28616;44.746;19.678;2023-02-26T18:19:42;1.40;99.90
42979;DHT22;28616;44.746;19.678;2023-02-26T18:22:19;1.40;99.90
42979;DHT22;28616;44.746;19.678;2023-02-26T18:24:46;1.40;99.90
42979;DHT22;28616;44.746;19.678;2023-02-26T18:27:21;1.40;99.90
42979;DHT22;28616;44.746;19.678;2023-02-26T18:29:47;1.40;99.90
42979;DHT22;28616;44.746;19.678;2023-02-26T18:32:15;1.40;99.90
42979;DHT22;28616;44.746;19.678;2023-02-26T18:34:41;1.30;99.90
42979;DHT22;28616;44.746;19.678;2023-02-26T18:37:18;1.30;99.90
42979;DHT22;28616;44.746;19.678;2023-02-26T18:39:44;1.30;99.90
42979;DHT22;28616;44.746;19.678;2023-02-26T18:42:21;1.20;99.90
42979;DHT22;28616;44.746;19.678;2023-02-26T18:44:49;1.30;99.90
42979;DHT22;28616;44.746;19.678;2023-02-26T18:47:15;1.20;99.90
42979;DHT22;28616;44.746;19.678;2023-02-26T18:49:41;1.20;99.90
42979;DHT22;28616;44.746;19.678;2023-02-26T18:52:07;1.20;99.90